| time (UTC) | temp F | wind direction | speed MPH | gust MPH | rain 1hr in | rain 24hr in | rain mn in | humidity % | barometer mb |
| 20260905233033 | 86 | 176 | 3.0 | 5.0 | 0.00 | 0.00 | 0.00 | 27 | 1021.2 |
| 20260905232528 | 88 | 285 | 2.0 | 3.0 | 0.00 | 0.00 | 0.00 | 28 | 1021.2 |
| 20260905232024 | 89 | 203 | 1.0 | 2.0 | 0.00 | 0.00 | 0.00 | 25 | 1021.4 |
| 20260905231519 | 88 | 213 | 3.0 | 5.0 | 0.00 | 0.00 | 0.00 | 25 | 1021.3 |
| 20260905231015 | 88 | 149 | 3.0 | 3.0 | 0.00 | 0.00 | 0.00 | 25 | 1021.4 |
| 20260905230514 | 88 | 230 | 2.0 | 3.0 | 0.00 | 0.00 | 0.00 | 26 | 1021.3 |
| 20260905230013 | 89 | 198 | 1.0 | 1.0 | 0.00 | 0.00 | 0.00 | 27 | 1021.4 |
| 20260905225507 | 89 | 195 | 0.0 | 1.0 | 0.00 | 0.00 | 0.00 | 29 | 1021.3 |
| 20260905225003 | 89 | 225 | 3.0 | 5.0 | 0.00 | 0.00 | 0.00 | 24 | 1021.5 |
| 20260905224458 | 89 | 213 | 1.0 | 2.0 | 0.00 | 0.00 | 0.00 | 25 | 1021.4 |
| 20260905223956 | 89 | 106 | 1.0 | 1.0 | 0.00 | 0.00 | 0.00 | 26 | 1021.4 |
| 20260905223455 | 87 | 253 | 0.0 | 1.0 | 0.00 | 0.00 | 0.00 | 31 | 1021.4 |
| 20260905222950 | 88 | 115 | 0.0 | 0.0 | 0.00 | 0.00 | 0.00 | 28 | 1021.4 |
| 20260905222449 | 87 | 81 | 0.0 | 1.0 | 0.00 | 0.00 | 0.00 | 33 | 1021.5 |
| 20260905221945 | 88 | 198 | 1.0 | 1.0 | 0.00 | 0.00 | 0.00 | 28 | 1021.5 |
| 20260905221441 | 89 | 210 | 2.0 | 2.0 | 0.00 | 0.00 | 0.00 | 32 | 1021.7 |
| 20260905220937 | 88 | 225 | 2.0 | 3.0 | 0.00 | 0.00 | 0.00 | 26 | 1021.7 |
| 20260905220433 | 88 | 180 | 0.0 | 0.0 | 0.00 | 0.00 | 0.00 | 27 | 1021.9 |
| 20260905215932 | 88 | 196 | 2.0 | 2.0 | 0.00 | 0.00 | 0.00 | 26 | 1021.9 |
| 20260905215428 | 88 | 86 | 1.0 | 2.0 | 0.00 | 0.00 | 0.00 | 29 | 1022.0 |
| 20260905214924 | 87 | 165 | 1.0 | 1.0 | 0.00 | 0.00 | 0.00 | 29 | 1021.8 |
| 20260905214419 | 87 | 177 | 1.0 | 2.0 | 0.00 | 0.00 | 0.00 | 29 | 1022.0 |
| 20260905213914 | 86 | 214 | 1.0 | 1.0 | 0.00 | 0.00 | 0.00 | 27 | 1021.9 |
| 20260905213410 | 88 | 214 | 2.0 | 3.0 | 0.00 | 0.00 | 0.00 | 27 | 1022.0 |
| 20260905212906 | 88 | 89 | 0.0 | 0.0 | 0.00 | 0.00 | 0.00 | 30 | 1022.0 |
| 20260905212401 | 88 | 111 | 2.0 | 2.0 | 0.00 | 0.00 | 0.00 | 29 | 1022.4 |
| 20260905211859 | 88 | 253 | 1.0 | 2.0 | 0.00 | 0.00 | 0.00 | 27 | 1022.4 |
| 20260905211355 | 88 | 119 | 0.0 | 1.0 | 0.00 | 0.00 | 0.00 | 28 | 1022.4 |
| 20260905210851 | 88 | 142 | 2.0 | 2.0 | 0.00 | 0.00 | 0.00 | 26 | 1022.3 |
| 20260905210351 | 88 | 203 | 1.0 | 2.0 | 0.00 | 0.00 | 0.00 | 26 | 1022.4 |
| 20260905205850 | 88 | 157 | 1.0 | 2.0 | 0.00 | 0.00 | 0.00 | 27 | 1022.4 |
| 20260905205345 | 87 | 154 | 1.0 | 1.0 | 0.00 | 0.00 | 0.00 | 30 | 1022.4 |
| 20260905204844 | 87 | 73 | 2.0 | 2.0 | 0.00 | 0.00 | 0.00 | 30 | 1022.4 |
| 20260905204341 | 87 | 153 | 1.0 | 1.0 | 0.00 | 0.00 | 0.00 | 29 | 1022.8 |
| 20260905203839 | 87 | 103 | 1.0 | 1.0 | 0.00 | 0.00 | 0.00 | 28 | 1022.9 |
| 20260905203335 | 87 | 244 | 0.0 | 1.0 | 0.00 | 0.00 | 0.00 | 28 | 1023.0 |
| 20260905202831 | 87 | 201 | 2.0 | 2.0 | 0.00 | 0.00 | 0.00 | 28 | 1022.8 |
| 20260905202325 | 87 | 190 | 3.0 | 5.0 | 0.00 | 0.00 | 0.00 | 29 | 1022.9 |
| 20260905201821 | 87 | 122 | 0.0 | 1.0 | 0.00 | 0.00 | 0.00 | 32 | 1022.9 |
| 20260905201316 | 86 | 257 | 0.0 | 1.0 | 0.00 | 0.00 | 0.00 | 32 | 1023.0 |
| 20260905200811 | 85 | 112 | 1.0 | 1.0 | 0.00 | 0.00 | 0.00 | 32 | 1022.9 |
| 20260905200307 | 84 | 79 | 1.0 | 1.0 | 0.00 | 0.00 | 0.00 | 31 | 1022.9 |
| 20260905195804 | 86 | 112 | 0.0 | 0.0 | 0.00 | 0.00 | 0.00 | 31 | 1023.1 |
| 20260905195259 | 86 | 248 | 0.0 | 1.0 | 0.00 | 0.00 | 0.00 | 33 | 1023.1 |
| 20260905194755 | 86 | 156 | 1.0 | 1.0 | 0.00 | 0.00 | 0.00 | 30 | 1023.2 |
| 20260905194254 | 86 | 205 | 1.0 | 1.0 | 0.00 | 0.00 | 0.00 | 30 | 1023.2 |
| 20260905193748 | 86 | 115 | 1.0 | 1.0 | 0.00 | 0.00 | 0.00 | 32 | 1023.2 |
| 20260905193243 | 86 | 281 | 1.0 | 1.0 | 0.00 | 0.00 | 0.00 | 31 | 1023.5 |
| 20260905192739 | 85 | 274 | 1.0 | 2.0 | 0.00 | 0.00 | 0.00 | 32 | 1023.4 |
| 20260905192235 | 84 | 332 | 2.0 | 2.0 | 0.00 | 0.00 | 0.00 | 31 | 1023.6 |
| 20260905191734 | 84 | 83 | 1.0 | 1.0 | 0.00 | 0.00 | 0.00 | 34 | 1023.5 |
| 20260905191233 | 85 | 183 | 1.0 | 1.0 | 0.00 | 0.00 | 0.00 | 32 | 1023.4 |
| 20260905190732 | 85 | 208 | 3.0 | 3.0 | 0.00 | 0.00 | 0.00 | 30 | 1023.6 |
| 20260905190231 | 85 | 63 | 1.0 | 2.0 | 0.00 | 0.00 | 0.00 | 33 | 1023.7 |
| 20260905185730 | 84 | 22 | 2.0 | 2.0 | 0.00 | 0.00 | 0.00 | 35 | 1023.7 |
| 20260905185225 | 83 | 159 | 0.0 | 1.0 | 0.00 | 0.00 | 0.00 | 31 | 1023.8 |
| 20260905184719 | 83 | 267 | 2.0 | 2.0 | 0.00 | 0.00 | 0.00 | 32 | 1023.8 |
| 20260905184218 | 84 | 134 | 1.0 | 2.0 | 0.00 | 0.00 | 0.00 | 37 | 1023.6 |
| 20260905183712 | 83 | 245 | 1.0 | 3.0 | 0.00 | 0.00 | 0.00 | 34 | 1023.8 |
| 20260905183207 | 82 | 261 | 0.0 | 1.0 | 0.00 | 0.00 | 0.00 | 34 | 1024.1 |
| 20260905182707 | 82 | 130 | 0.0 | 0.0 | 0.00 | 0.00 | 0.00 | 35 | 1024.1 |
| 20260905182207 | 80 | 54 | 1.0 | 2.0 | 0.00 | 0.00 | 0.00 | 37 | 1024.0 |
| 20260905181702 | 81 | 176 | 0.0 | 0.0 | 0.00 | 0.00 | 0.00 | 36 | 1024.2 |
| 20260905181201 | 80 | 176 | 0.0 | 0.0 | 0.00 | 0.00 | 0.00 | 36 | 1024.5 |
| 20260905180655 | 80 | 198 | 1.0 | 1.0 | 0.00 | 0.00 | 0.00 | 35 | 1024.5 |
| 20260905180151 | 80 | 129 | 0.0 | 1.0 | 0.00 | 0.00 | 0.00 | 37 | 1024.6 |
| 20260905175650 | 80 | 151 | 3.0 | 3.0 | 0.00 | 0.00 | 0.00 | 35 | 1024.6 |
| 20260905175146 | 80 | 197 | 1.0 | 1.0 | 0.00 | 0.00 | 0.00 | 37 | 1024.8 |
| 20260905174641 | 79 | 136 | 0.0 | 0.0 | 0.00 | 0.00 | 0.00 | 38 | 1024.7 |
| 20260905174136 | 79 | 83 | 0.0 | 0.0 | 0.00 | 0.00 | 0.00 | 38 | 1024.7 |
| 20260905173632 | 79 | 154 | 0.0 | 1.0 | 0.00 | 0.00 | 0.00 | 41 | 1024.7 |
| 20260905173128 | 79 | 128 | 0.0 | 0.0 | 0.00 | 0.00 | 0.00 | 40 | 1024.9 |
| 20260905172627 | 78 | 240 | 0.0 | 0.0 | 0.00 | 0.00 | 0.00 | 39 | 1024.8 |
| 20260905172122 | 78 | 228 | 2.0 | 2.0 | 0.00 | 0.00 | 0.00 | 39 | 1025.1 |
| 20260905171618 | 77 | 141 | 0.0 | 0.0 | 0.00 | 0.00 | 0.00 | 42 | 1024.7 |
| 20260905171114 | 76 | 125 | 0.0 | 0.0 | 0.00 | 0.00 | 0.00 | 48 | 1025.1 |
| 20260905170610 | 75 | 196 | 0.0 | 0.0 | 0.00 | 0.00 | 0.00 | 44 | 1024.8 |
| 20260905170105 | 74 | 184 | 0.0 | 1.0 | 0.00 | 0.00 | 0.00 | 41 | 1024.9 |
| 20260905165559 | 73 | 108 | 0.0 | 0.0 | 0.00 | 0.00 | 0.00 | 44 | 1025.1 |
| 20260905165055 | 73 | 152 | 2.0 | 2.0 | 0.00 | 0.00 | 0.00 | 43 | 1024.8 |
| 20260905164550 | 72 | 135 | 0.0 | 0.0 | 0.00 | 0.00 | 0.00 | 46 | 1025.2 |
| 20260905164044 | 71 | 116 | 0.0 | 0.0 | 0.00 | 0.00 | 0.00 | 50 | 1025.1 |
| 20260905163540 | 71 | 183 | 0.0 | 1.0 | 0.00 | 0.00 | 0.00 | 45 | 1025.3 |
| 20260905163036 | 71 | 152 | 0.0 | 1.0 | 0.00 | 0.00 | 0.00 | 47 | 1025.1 |
| 20260905162532 | 70 | 37 | 0.0 | 0.0 | 0.00 | 0.00 | 0.00 | 54 | 1025.1 |
| 20260905162027 | 70 | 178 | 0.0 | 0.0 | 0.00 | 0.00 | 0.00 | 50 | 1025.3 |
| 20260905161526 | 69 | 187 | 0.0 | 1.0 | 0.00 | 0.00 | 0.00 | 50 | 1024.9 |
| 20260905161024 | 69 | 180 | 0.0 | 0.0 | 0.00 | 0.00 | 0.00 | 51 | 1025.1 |
| 20260905160517 | 69 | 130 | 0.0 | 0.0 | 0.00 | 0.00 | 0.00 | 55 | 1024.9 |
| 20260905160018 | 69 | 148 | 1.0 | 1.0 | 0.00 | 0.00 | 0.00 | 55 | 1025.2 |
| 20260905155518 | 69 | 149 | 1.0 | 1.0 | 0.00 | 0.00 | 0.00 | 52 | 1024.9 |
| 20260905155016 | 68 | 131 | 0.0 | 1.0 | 0.00 | 0.00 | 0.00 | 51 | 1025.2 |
| 20260905154511 | 68 | 148 | 0.0 | 0.0 | 0.00 | 0.00 | 0.00 | 52 | 1025.3 |
| 20260905154007 | 67 | 161 | 0.0 | 0.0 | 0.00 | 0.00 | 0.00 | 52 | 1025.2 |
| 20260905153503 | 66 | 105 | 0.0 | 0.0 | 0.00 | 0.00 | 0.00 | 58 | 1025.3 |
| 20260905153003 | 66 | 91 | 0.0 | 0.0 | 0.00 | 0.00 | 0.00 | 55 | 1025.2 |
| 20260905152502 | 65 | 151 | 0.0 | 0.0 | 0.00 | 0.00 | 0.00 | 62 | 1025.4 |
| 20260905151957 | 65 | 136 | 1.0 | 1.0 | 0.00 | 0.00 | 0.00 | 67 | 1025.4 |
| 20260905151452 | 64 | 142 | 0.0 | 0.0 | 0.00 | 0.00 | 0.00 | 64 | 1025.2 |
| 20260905150947 | 63 | 140 | 0.0 | 0.0 | 0.00 | 0.00 | 0.00 | 69 | 1025.2 |
| 20260905150442 | 62 | 163 | 0.0 | 0.0 | 0.00 | 0.00 | 0.00 | 67 | 1025.1 |
| 20260905145938 | 62 | 106 | 0.0 | 0.0 | 0.00 | 0.00 | 0.00 | 68 | 1025.3 |
| 20260905145433 | 62 | 91 | 2.0 | 2.0 | 0.00 | 0.00 | 0.00 | 71 | 1025.7 |
| 20260905144933 | 62 | 119 | 2.0 | 2.0 | 0.00 | 0.00 | 0.00 | 74 | 1025.6 |
| 20260905144428 | 61 | 144 | 0.0 | 0.0 | 0.00 | 0.00 | 0.00 | 76 | 1025.4 |
| 20260905143927 | 60 | 132 | 0.0 | 0.0 | 0.00 | 0.00 | 0.00 | 78 | 1025.8 |
| 20260905143420 | 60 | 103 | 0.0 | 0.0 | 0.00 | 0.00 | 0.00 | 80 | 1025.7 |
| 20260905142915 | 59 | 103 | 0.0 | 0.0 | 0.00 | 0.00 | 0.00 | 81 | 1025.6 |
| 20260905142414 | 58 | 143 | 0.0 | 0.0 | 0.00 | 0.00 | 0.00 | 80 | 1025.7 |
| 20260905141910 | 57 | 144 | 0.0 | 0.0 | 0.00 | 0.00 | 0.00 | 82 | 1025.7 |
| 20260905141405 | 57 | 147 | 0.0 | 0.0 | 0.00 | 0.00 | 0.00 | 83 | 1025.6 |
| 20260905140901 | 58 | 111 | 0.0 | 0.0 | 0.00 | 0.00 | 0.00 | 80 | 1025.6 |
| 20260905140355 | 57 | 164 | 0.0 | 0.0 | 0.00 | 0.00 | 0.00 | 78 | 1025.7 |
| 20260905135854 | 55 | 172 | 0.0 | 0.0 | 0.00 | 0.00 | 0.00 | 82 | 1025.8 |
| 20260905135350 | 52 | 152 | 0.0 | 0.0 | 0.00 | 0.00 | 0.00 | 89 | 1025.7 |
| 20260905134846 | 50 | 148 | 0.0 | 0.0 | 0.00 | 0.00 | 0.00 | 95 | 1025.4 |
| 20260905134344 | 49 | 140 | 0.0 | 0.0 | 0.00 | 0.00 | 0.00 | 95 | 1025.4 |
| 20260905133838 | 49 | 146 | 0.0 | 0.0 | 0.00 | 0.00 | 0.00 | 96 | 1025.6 |
| 20260905133334 | 49 | 154 | 0.0 | 0.0 | 0.00 | 0.00 | 0.00 | 97 | 1025.4 |
| 20260905132832 | 48 | 110 | 0.0 | 1.0 | 0.00 | 0.00 | 0.00 | 97 | 1025.4 |
| 20260905132329 | 48 | 177 | 0.0 | 0.0 | 0.00 | 0.00 | 0.00 | 97 | 1025.3 |
| 20260905131822 | 48 | 178 | 0.0 | 0.0 | 0.00 | 0.00 | 0.00 | 97 | 1025.2 |
| 20260905131319 | 48 | 143 | 0.0 | 0.0 | 0.00 | 0.00 | 0.00 | 97 | 1025.2 |
| 20260905130814 | 48 | 167 | 0.0 | 0.0 | 0.00 | 0.00 | 0.00 | 97 | 1025.2 |
| 20260905130312 | 48 | 162 | 0.0 | 0.0 | 0.00 | 0.00 | 0.00 | 97 | 1025.1 |
| 20260905125808 | 48 | 145 | 0.0 | 0.0 | 0.00 | 0.00 | 0.00 | 97 | 1025.2 |
| 20260905125308 | 48 | 144 | 0.0 | 0.0 | 0.00 | 0.00 | 0.00 | 97 | 1025.1 |
| 20260905124759 | 48 | 121 | 0.0 | 0.0 | 0.00 | 0.00 | 0.00 | 97 | 1024.9 |
| 20260905124255 | 48 | 173 | 0.0 | 0.0 | 0.00 | 0.00 | 0.00 | 97 | 1024.8 |
| 20260905123749 | 48 | 177 | 0.0 | 0.0 | 0.00 | 0.00 | 0.00 | 96 | 1024.7 |
| 20260905123247 | 48 | 156 | 0.0 | 0.0 | 0.00 | 0.00 | 0.00 | 96 | 1024.6 |
| 20260905122746 | 49 | 150 | 0.0 | 0.0 | 0.00 | 0.00 | 0.00 | 96 | 1024.8 |
| 20260905122240 | 48 | 177 | 0.0 | 0.0 | 0.00 | 0.00 | 0.00 | 96 | 1024.6 |
| 20260905121736 | 48 | 204 | 0.0 | 0.0 | 0.00 | 0.00 | 0.00 | 96 | 1024.6 |
| 20260905121232 | 48 | 172 | 0.0 | 0.0 | 0.00 | 0.00 | 0.00 | 95 | 1024.6 |
| 20260905120730 | 49 | 148 | 0.0 | 0.0 | 0.00 | 0.00 | 0.00 | 95 | 1024.6 |
| 20260905120231 | 48 | 167 | 0.0 | 0.0 | 0.00 | 0.00 | 0.00 | 95 | 1024.2 |
| 20260905115725 | 49 | 171 | 0.0 | 0.0 | 0.00 | 0.00 | 0.00 | 95 | 1024.5 |
| 20260905115220 | 49 | 177 | 0.0 | 0.0 | 0.00 | 0.00 | 0.00 | 95 | 1024.5 |
| 20260905114715 | 49 | 180 | 0.0 | 0.0 | 0.00 | 0.00 | 0.00 | 94 | 1024.5 |
| 20260905114213 | 49 | 180 | 0.0 | 0.0 | 0.00 | 0.00 | 0.00 | 94 | 1024.5 |
| 20260905113713 | 50 | 139 | 0.0 | 0.0 | 0.00 | 0.00 | 0.00 | 95 | 1024.5 |
| 20260905113208 | 49 | 137 | 0.0 | 0.0 | 0.00 | 0.00 | 0.00 | 95 | 1024.6 |
| 20260905112708 | 49 | 178 | 0.0 | 0.0 | 0.00 | 0.00 | 0.00 | 95 | 1024.5 |
| 20260905112204 | 49 | 160 | 0.0 | 0.0 | 0.00 | 0.00 | 0.00 | 94 | 1024.6 |
| 20260905111704 | 49 | 160 | 0.0 | 0.0 | 0.00 | 0.00 | 0.00 | 94 | 1024.7 |
| 20260905111204 | 49 | 118 | 0.0 | 1.0 | 0.00 | 0.00 | 0.00 | 94 | 1024.6 |
| 20260905110702 | 49 | 181 | 0.0 | 0.0 | 0.00 | 0.00 | 0.00 | 94 | 1024.3 |
| 20260905110157 | 49 | 174 | 0.0 | 0.0 | 0.00 | 0.00 | 0.00 | 94 | 1024.5 |
| 20260905105653 | 49 | 152 | 0.0 | 0.0 | 0.00 | 0.00 | 0.00 | 94 | 1024.5 |
| 20260905105151 | 49 | 144 | 0.0 | 0.0 | 0.00 | 0.00 | 0.00 | 93 | 1024.1 |
| 20260905104647 | 50 | 140 | 0.0 | 0.0 | 0.00 | 0.00 | 0.00 | 93 | 1024.3 |
| 20260905104142 | 50 | 136 | 0.0 | 0.0 | 0.00 | 0.00 | 0.00 | 92 | 1024.6 |
| 20260905103637 | 50 | 138 | 0.0 | 0.0 | 0.00 | 0.00 | 0.00 | 94 | 1024.3 |
| 20260905103133 | 50 | 152 | 0.0 | 0.0 | 0.00 | 0.00 | 0.00 | 93 | 1024.2 |
| 20260905102629 | 50 | 152 | 0.0 | 0.0 | 0.00 | 0.00 | 0.00 | 92 | 1024.3 |
| 20260905102125 | 50 | 165 | 0.0 | 0.0 | 0.00 | 0.00 | 0.00 | 92 | 1024.5 |
| 20260905101624 | 51 | 160 | 0.0 | 0.0 | 0.00 | 0.00 | 0.00 | 92 | 1024.3 |
| 20260905101122 | 51 | 160 | 0.0 | 0.0 | 0.00 | 0.00 | 0.00 | 91 | 1024.0 |
| 20260905100618 | 51 | 128 | 0.0 | 0.0 | 0.00 | 0.00 | 0.00 | 92 | 1024.1 |
| 20260905100114 | 50 | 163 | 0.0 | 0.0 | 0.00 | 0.00 | 0.00 | 91 | 1024.0 |
| 20260905095607 | 50 | 163 | 0.0 | 0.0 | 0.00 | 0.00 | 0.00 | 90 | 1024.2 |
| 20260905095102 | 51 | 163 | 0.0 | 0.0 | 0.00 | 0.00 | 0.00 | 90 | 1024.1 |
| 20260905094558 | 51 | 163 | 0.0 | 0.0 | 0.00 | 0.00 | 0.00 | 91 | 1024.2 |
| 20260905094057 | 51 | 163 | 0.0 | 0.0 | 0.00 | 0.00 | 0.00 | 90 | 1024.0 |
| 20260905093557 | 51 | 163 | 0.0 | 0.0 | 0.00 | 0.00 | 0.00 | 90 | 1024.1 |
| 20260905093054 | 52 | 143 | 0.0 | 0.0 | 0.00 | 0.00 | 0.00 | 90 | 1024.2 |
| 20260905092553 | 52 | 151 | 0.0 | 0.0 | 0.00 | 0.00 | 0.00 | 89 | 1024.2 |
| 20260905092049 | 52 | 165 | 0.0 | 0.0 | 0.00 | 0.00 | 0.00 | 88 | 1024.0 |
| 20260905091548 | 52 | 154 | 0.0 | 0.0 | 0.00 | 0.00 | 0.00 | 88 | 1024.2 |
| 20260905091043 | 52 | 148 | 0.0 | 0.0 | 0.00 | 0.00 | 0.00 | 87 | 1024.3 |
| 20260905090542 | 53 | 137 | 0.0 | 0.0 | 0.00 | 0.00 | 0.00 | 87 | 1024.2 |
| 20260905090038 | 53 | 97 | 0.0 | 1.0 | 0.00 | 0.00 | 0.00 | 85 | 1024.2 |
| 20260905085536 | 53 | 226 | 0.0 | 1.0 | 0.00 | 0.00 | 0.00 | 86 | 1024.1 |
| 20260905085032 | 53 | 159 | 0.0 | 0.0 | 0.00 | 0.00 | 0.00 | 85 | 1024.1 |
| 20260905084531 | 53 | 202 | 0.0 | 0.0 | 0.00 | 0.00 | 0.00 | 84 | 1024.1 |
| 20260905084027 | 53 | 212 | 0.0 | 0.0 | 0.00 | 0.00 | 0.00 | 86 | 1024.1 |
| 20260905083516 | 52 | 183 | 0.0 | 0.0 | 0.00 | 0.00 | 0.00 | 88 | 1024.2 |
| 20260905083013 | 52 | 177 | 0.0 | 0.0 | 0.00 | 0.00 | 0.00 | 87 | 1024.2 |
| 20260905082508 | 53 | 174 | 0.0 | 0.0 | 0.00 | 0.00 | 0.00 | 86 | 1024.3 |
| 20260905082004 | 52 | 179 | 0.0 | 0.0 | 0.00 | 0.00 | 0.00 | 87 | 1024.5 |
| 20260905081457 | 52 | 177 | 0.0 | 0.0 | 0.00 | 0.00 | 0.00 | 88 | 1024.1 |
| 20260905080957 | 52 | 140 | 0.0 | 0.0 | 0.00 | 0.00 | 0.00 | 87 | 1024.2 |
| 20260905080452 | 53 | 168 | 0.0 | 0.0 | 0.00 | 0.00 | 0.00 | 85 | 1024.2 |
| 20260905075950 | 53 | 168 | 0.0 | 0.0 | 0.00 | 0.00 | 0.00 | 85 | 1024.5 |
| 20260905075445 | 54 | 159 | 0.0 | 0.0 | 0.00 | 0.00 | 0.00 | 84 | 1024.5 |
| 20260905074944 | 54 | 141 | 0.0 | 0.0 | 0.00 | 0.00 | 0.00 | 84 | 1024.2 |
| 20260905074440 | 53 | 192 | 0.0 | 0.0 | 0.00 | 0.00 | 0.00 | 84 | 1024.2 |
| 20260905073936 | 53 | 193 | 0.0 | 0.0 | 0.00 | 0.00 | 0.00 | 86 | 1024.1 |
| 20260905073430 | 53 | 192 | 0.0 | 0.0 | 0.00 | 0.00 | 0.00 | 88 | 1024.1 |
| 20260905072926 | 53 | 178 | 0.0 | 0.0 | 0.00 | 0.00 | 0.00 | 87 | 1024.1 |
| 20260905072420 | 53 | 134 | 0.0 | 0.0 | 0.00 | 0.00 | 0.00 | 87 | 1024.2 |
| 20260905071917 | 54 | 95 | 1.0 | 1.0 | 0.00 | 0.00 | 0.00 | 85 | 1024.2 |
| 20260905071414 | 53 | 205 | 0.0 | 0.0 | 0.00 | 0.00 | 0.00 | 83 | 1024.0 |
| 20260905070912 | 53 | 202 | 0.0 | 0.0 | 0.00 | 0.00 | 0.00 | 89 | 1024.1 |
| 20260905070409 | 53 | 181 | 0.0 | 0.0 | 0.00 | 0.00 | 0.00 | 89 | 1023.8 |
| 20260905065909 | 53 | 159 | 0.0 | 0.0 | 0.00 | 0.00 | 0.00 | 89 | 1024.0 |
| 20260905065407 | 53 | 115 | 0.0 | 1.0 | 0.00 | 0.00 | 0.00 | 87 | 1024.0 |
| 20260905064903 | 53 | 182 | 0.0 | 0.0 | 0.00 | 0.00 | 0.00 | 89 | 1023.8 |
| 20260905064358 | 53 | 169 | 0.0 | 0.0 | 0.00 | 0.00 | 0.00 | 88 | 1023.7 |
| 20260905063857 | 54 | 169 | 0.0 | 0.0 | 0.00 | 0.00 | 0.00 | 88 | 1023.6 |
| 20260905063352 | 54 | 137 | 0.0 | 0.0 | 0.00 | 0.00 | 0.00 | 87 | 1023.6 |
| 20260905062849 | 54 | 132 | 0.0 | 0.0 | 0.00 | 0.00 | 0.00 | 87 | 1023.5 |
| 20260905062348 | 54 | 144 | 0.0 | 0.0 | 0.00 | 0.00 | 0.00 | 87 | 1023.5 |
| 20260905061843 | 54 | 112 | 0.0 | 1.0 | 0.00 | 0.00 | 0.00 | 88 | 1023.7 |
| 20260905061337 | 54 | 159 | 0.0 | 0.0 | 0.00 | 0.00 | 0.00 | 87 | 1023.6 |
| 20260905060832 | 54 | 163 | 0.0 | 0.0 | 0.00 | 0.00 | 0.00 | 85 | 1023.5 |
| 20260905060329 | 54 | 163 | 0.0 | 0.0 | 0.00 | 0.00 | 0.00 | 85 | 1023.5 |
| 20260905055827 | 54 | 159 | 0.0 | 0.0 | 0.00 | 0.00 | 0.00 | 86 | 1023.5 |
| 20260905055322 | 55 | 159 | 0.0 | 0.0 | 0.00 | 0.00 | 0.00 | 85 | 1023.7 |
| 20260905054822 | 55 | 173 | 0.0 | 0.0 | 0.00 | 0.00 | 0.00 | 84 | 1023.4 |
| 20260905054319 | 55 | 150 | 0.0 | 0.0 | 0.00 | 0.00 | 0.00 | 85 | 1023.5 |
| 20260905053818 | 56 | 137 | 0.0 | 0.0 | 0.00 | 0.00 | 0.00 | 85 | 1023.5 |
| 20260905053313 | 55 | 114 | 0.0 | 0.0 | 0.00 | 0.00 | 0.00 | 84 | 1023.6 |
| 20260905052813 | 55 | 159 | 0.0 | 0.0 | 0.00 | 0.00 | 0.00 | 83 | 1023.6 |
| 20260905052308 | 55 | 159 | 0.0 | 0.0 | 0.00 | 0.00 | 0.00 | 85 | 1023.4 |
| 20260905051808 | 55 | 159 | 0.0 | 0.0 | 0.00 | 0.00 | 0.00 | 84 | 1023.5 |
| 20260905051304 | 56 | 159 | 0.0 | 0.0 | 0.00 | 0.00 | 0.00 | 84 | 1023.6 |
| 20260905050801 | 56 | 159 | 0.0 | 0.0 | 0.00 | 0.00 | 0.00 | 83 | 1023.5 |
| 20260905050256 | 57 | 154 | 0.0 | 0.0 | 0.00 | 0.00 | 0.00 | 82 | 1023.5 |
| 20260905045751 | 57 | 120 | 0.0 | 0.0 | 0.00 | 0.00 | 0.00 | 84 | 1023.4 |
| 20260905045246 | 56 | 167 | 0.0 | 0.0 | 0.00 | 0.00 | 0.00 | 80 | 1023.4 |
| 20260905044741 | 56 | 162 | 0.0 | 0.0 | 0.00 | 0.00 | 0.00 | 81 | 1023.5 |
| 20260905044231 | 57 | 159 | 0.0 | 0.0 | 0.00 | 0.00 | 0.00 | 81 | 1023.5 |
| 20260905043729 | 57 | 121 | 0.0 | 1.0 | 0.00 | 0.00 | 0.00 | 79 | 1023.6 |
| 20260905043229 | 58 | 143 | 0.0 | 0.0 | 0.00 | 0.00 | 0.00 | 78 | 1023.5 |
| 20260905042725 | 57 | 188 | 0.0 | 0.0 | 0.00 | 0.00 | 0.00 | 76 | 1023.2 |
| 20260905042224 | 58 | 155 | 0.0 | 0.0 | 0.00 | 0.00 | 0.00 | 78 | 1023.2 |
| 20260905041720 | 58 | 149 | 0.0 | 0.0 | 0.00 | 0.00 | 0.00 | 78 | 1023.2 |
| 20260905041215 | 59 | 172 | 0.0 | 0.0 | 0.00 | 0.00 | 0.00 | 75 | 1023.1 |
| 20260905040710 | 59 | 164 | 0.0 | 0.0 | 0.00 | 0.00 | 0.00 | 80 | 1023.2 |
| 20260905040208 | 58 | 143 | 0.0 | 0.0 | 0.00 | 0.00 | 0.00 | 77 | 1023.2 |
| 20260905035703 | 59 | 143 | 0.0 | 0.0 | 0.00 | 0.00 | 0.00 | 78 | 1023.1 |
| 20260905035200 | 59 | 143 | 0.0 | 0.0 | 0.00 | 0.00 | 0.00 | 78 | 1023.1 |
| 20260905034656 | 60 | 143 | 0.0 | 0.0 | 0.00 | 0.00 | 0.00 | 76 | 1023.4 |
| 20260905034155 | 60 | 132 | 0.0 | 0.0 | 0.00 | 0.00 | 0.00 | 75 | 1023.1 |
| 20260905033654 | 60 | 174 | 0.0 | 0.0 | 0.00 | 0.00 | 0.00 | 74 | 1023.1 |
| 20260905033150 | 60 | 178 | 0.0 | 0.0 | 0.00 | 0.00 | 0.00 | 72 | 1023.0 |
| 20260905032650 | 60 | 179 | 0.0 | 0.0 | 0.00 | 0.00 | 0.00 | 74 | 1022.8 |
| 20260905032150 | 60 | 168 | 0.0 | 0.0 | 0.00 | 0.00 | 0.00 | 74 | 1023.1 |
| 20260905031646 | 61 | 106 | 1.0 | 1.0 | 0.00 | 0.00 | 0.00 | 71 | 1023.1 |
| 20260905031141 | 61 | 157 | 0.0 | 0.0 | 0.00 | 0.00 | 0.00 | 70 | 1022.9 |
| 20260905030636 | 61 | 157 | 0.0 | 0.0 | 0.00 | 0.00 | 0.00 | 69 | 1022.5 |
| 20260905030131 | 62 | 142 | 0.0 | 0.0 | 0.00 | 0.00 | 0.00 | 70 | 1022.5 |
| 20260905025626 | 62 | 136 | 0.0 | 0.0 | 0.00 | 0.00 | 0.00 | 69 | 1022.4 |
| 20260905025122 | 63 | 88 | 1.0 | 2.0 | 0.00 | 0.00 | 0.00 | 69 | 1022.0 |
| 20260905024618 | 62 | 175 | 0.0 | 0.0 | 0.00 | 0.00 | 0.00 | 67 | 1022.0 |
| 20260905024112 | 62 | 207 | 0.0 | 1.0 | 0.00 | 0.00 | 0.00 | 69 | 1022.0 |
| 20260905023608 | 62 | 160 | 0.0 | 0.0 | 0.00 | 0.00 | 0.00 | 73 | 1021.9 |
| 20260905023102 | 62 | 177 | 0.0 | 0.0 | 0.00 | 0.00 | 0.00 | 74 | 1021.9 |
| 20260905022601 | 62 | 141 | 0.0 | 0.0 | 0.00 | 0.00 | 0.00 | 74 | 1021.7 |
| 20260905022057 | 63 | 141 | 0.0 | 0.0 | 0.00 | 0.00 | 0.00 | 77 | 1021.4 |
| 20260905021556 | 63 | 150 | 0.0 | 0.0 | 0.00 | 0.00 | 0.00 | 77 | 1021.8 |
| 20260905021052 | 64 | 135 | 0.0 | 0.0 | 0.00 | 0.00 | 0.00 | 75 | 1021.3 |
| 20260905020551 | 65 | 142 | 0.0 | 0.0 | 0.00 | 0.00 | 0.00 | 73 | 1021.4 |
| 20260905020047 | 65 | 143 | 0.0 | 0.0 | 0.00 | 0.00 | 0.00 | 69 | 1021.4 |
| 20260905015544 | 66 | 181 | 0.0 | 0.0 | 0.00 | 0.00 | 0.00 | 66 | 1021.2 |
| 20260905015039 | 66 | 163 | 0.0 | 0.0 | 0.00 | 0.00 | 0.00 | 66 | 1021.2 |
| 20260905014534 | 67 | 167 | 0.0 | 0.0 | 0.00 | 0.00 | 0.00 | 68 | 1021.3 |
| 20260905014029 | 67 | 119 | 0.0 | 0.0 | 0.00 | 0.00 | 0.00 | 66 | 1021.2 |
| 20260905013525 | 68 | 111 | 1.0 | 1.0 | 0.00 | 0.00 | 0.00 | 66 | 1021.2 |
| 20260905013022 | 70 | 112 | 0.0 | 1.0 | 0.00 | 0.00 | 0.00 | 60 | 1021.0 |
| 20260905012515 | 71 | 189 | 0.0 | 0.0 | 0.00 | 0.00 | 0.00 | 51 | 1020.9 |
| 20260905012013 | 72 | 231 | 0.0 | 1.0 | 0.00 | 0.00 | 0.00 | 51 | 1020.9 |
| 20260905011508 | 72 | 198 | 0.0 | 0.0 | 0.00 | 0.00 | 0.00 | 49 | 1021.0 |
| 20260905011003 | 72 | 190 | 0.0 | 0.0 | 0.00 | 0.00 | 0.00 | 49 | 1021.0 |
| 20260905010503 | 73 | 206 | 0.0 | 1.0 | 0.00 | 0.00 | 0.00 | 48 | 1021.0 |
| 20260905005959 | 73 | 189 | 0.0 | 0.0 | 0.00 | 0.00 | 0.00 | 49 | 1021.2 |
| 20260905005455 | 74 | 214 | 0.0 | 0.0 | 0.00 | 0.00 | 0.00 | 49 | 1021.0 |
| 20260905004950 | 75 | 215 | 0.0 | 1.0 | 0.00 | 0.00 | 0.00 | 48 | 1021.0 |
| 20260905004445 | 76 | 211 | 0.0 | 1.0 | 0.00 | 0.00 | 0.00 | 46 | 1020.9 |
| 20260905003940 | 77 | 168 | 0.0 | 0.0 | 0.00 | 0.00 | 0.00 | 45 | 1020.8 |
| 20260905003436 | 78 | 179 | 0.0 | 0.0 | 0.00 | 0.00 | 0.00 | 42 | 1020.7 |
| 20260905002932 | 79 | 123 | 1.0 | 1.0 | 0.00 | 0.00 | 0.00 | 43 | 1021.0 |
| 20260905002431 | 80 | 170 | 0.0 | 0.0 | 0.00 | 0.00 | 0.00 | 40 | 1020.9 |
| 20260905001926 | 81 | 121 | 0.0 | 0.0 | 0.00 | 0.00 | 0.00 | 38 | 1021.2 |
| 20260905001421 | 82 | 214 | 1.0 | 1.0 | 0.00 | 0.00 | 0.00 | 36 | 1020.9 |
| 20260905000915 | 83 | 206 | 1.0 | 1.0 | 0.00 | 0.00 | 0.00 | 35 | 1020.8 |
| 20260905000411 | 84 | 254 | 0.0 | 1.0 | 0.00 | 0.00 | 0.00 | 33 | 1020.9 |
| 20260904235906 | 84 | 261 | 1.0 | 1.0 | 0.00 | 0.00 | 0.00 | 34 | 1020.7 |
| 20260904235401 | 86 | 232 | 0.0 | 1.0 | 0.00 | 0.00 | 0.00 | 33 | 1020.6 |
| 20260904234855 | 85 | 181 | 0.0 | 0.0 | 0.00 | 0.00 | 0.00 | 37 | 1020.6 |
| 20260904234350 | 85 | 152 | 1.0 | 2.0 | 0.00 | 0.00 | 0.00 | 31 | 1020.8 |
| 20260904233846 | 85 | 258 | 3.0 | 3.0 | 0.00 | 0.00 | 0.00 | 30 | 1020.9 |
| 20260904233342 | 86 | 188 | 2.0 | 2.0 | 0.00 | 0.00 | 0.00 | 33 | 1020.7 |